Shelburne Falls, Massachusetts
Current Conditions -  °F | °C
As of 5:52 AM on Sunday 23 Nov 2014 (Local Time) from KORE Reporting Station
Broken Clouds Broken Clouds  
Wind Chill: 32°   Ceiling: 4900
Heat Index: 32°   Visibility: 10mi
Dew Point: 26°   Wind: 0mph
Humidity: 79%   Direction: NA
Pressure: 30.08"   Gusts: NA
Location:  42.6°N, 72.74°W
Report Text: KORE 231052Z AUTO 00000KT 10SM FEW031 BKN049 00/M03 A3008 RMK AO2 SLP192 T00001033
Loading
Personal Weather Stations






























Interactive Weather Map New forecast layout! Learn more

10-Day Weather Forecast

Advertisements
Track Severe Weather on mobile